Time;durP1;ratioP1;P1;durP2;ratioP2;P2;SDS_P1;SDS_P2;PMS_P1;PMS_P2;Temp;Humidity;BMP_temperature;BMP_pressure;BME280_temperature;BME280_humidity;BME280_pressure;Samples;Min_cycle;Max_cycle;Signal;HPM_P1;HPM_P2
2022/07/15 06:35:46;;;;;;;;;;;;;;;19.68;45.52;100769.91;1733451;80;91285;-76
2022/07/15 06:38:12;;;;;;;;;;;;;;;19.70;45.27;100770.54;1717100;81;20448;-77
2022/07/15 06:40:38;;;;;;;;;;;;;;;19.65;45.20;100782.02;1745632;81;21055;-77
2022/07/15 06:43:04;;;;;;;;;;;;;;;19.78;45.13;100774.30;1772057;81;20179;-77
2022/07/15 06:45:30;;;;;;;;;;;;;;;19.73;44.87;100784.45;1755280;81;20171;-77
2022/07/15 06:47:56;;;;;;;;;;;;;;;19.61;44.69;100777.25;1716979;81;20160;-77
2022/07/15 06:50:24;;;;;;;;;;;;;;;19.26;44.63;100784.95;1703810;82;20829;-76
2022/07/15 06:52:50;;;;;;;;;;;;;;;18.86;44.73;100787.84;1701553;83;21905;-77
2022/07/15 06:55:16;;;;;;;;;;;;;;;18.57;44.83;100779.45;1705166;82;20239;-76
2022/07/15 06:57:42;;;;;;;;;;;;;;;18.63;45.09;100781.29;1707528;82;20183;-77
2022/07/15 07:00:11;;;;;;;;;;;;;;;18.85;45.22;100789.42;1701927;82;20770;-77
2022/07/15 07:02:37;;;;;;;;;;;;;;;19.32;45.27;100788.96;1703506;82;20196;-77
2022/07/15 07:05:04;;;;;;;;;;;;;;;19.64;45.14;100785.76;1704637;82;21088;-77
2022/07/15 07:07:30;;;;;;;;;;;;;;;19.84;44.96;100790.48;1702003;82;20185;-76
2022/07/15 07:09:56;;;;;;;;;;;;;;;20.01;44.74;100788.08;1704493;82;20321;-77
2022/07/15 07:12:22;;;;;;;;;;;;;;;20.01;44.47;100788.08;1702770;82;20215;-76
2022/07/15 07:14:48;;;;;;;;;;;;;;;20.01;44.12;100785.89;1703286;82;20933;-76
2022/07/15 07:17:14;;;;;;;;;;;;;;;19.71;43.91;100774.88;1704773;82;21873;-77
2022/07/15 07:19:40;;;;;;;;;;;;;;;19.71;43.86;100788.41;1708105;84;20251;-77
2022/07/15 07:22:06;;;;;;;;;;;;;;;19.90;43.73;100773.91;1708260;82;20231;-77
2022/07/15 07:24:32;;;;;;;;;;;;;;;19.94;43.44;100792.72;1707185;82;20205;-77
2022/07/15 07:26:58;;;;;;;;;;;;;;;20.07;43.14;100788.53;1708739;84;20180;-76
2022/07/15 07:29:25;;;;;;;;;;;;;;;19.71;42.74;100790.59;1708458;82;21690;-76
2022/07/15 07:31:51;;;;;;;;;;;;;;;19.64;42.68;100793.88;1718467;82;20142;-77
2022/07/15 07:34:17;;;;;;;;;;;;;;;19.75;42.47;100788.28;1707629;84;20496;-77
2022/07/15 07:36:44;;;;;;;;;;;;;;;19.85;42.50;100787.26;1707247;83;20173;-77
2022/07/15 07:39:11;;;;;;;;;;;;;;;20.14;42.50;100782.53;1701667;84;20192;-78
2022/07/15 07:41:37;;;;;;;;;;;;;;;20.38;42.31;100787.11;1705652;84;21674;-79
2022/07/15 07:44:03;;;;;;;;;;;;;;;20.53;42.21;100788.63;1710176;82;20212;-78
2022/07/15 07:46:30;;;;;;;;;;;;;;;20.62;41.94;100787.28;1726498;82;20166;-77
2022/07/15 07:48:56;;;;;;;;;;;;;;;20.72;41.90;100795.16;1696771;83;20626;-77
2022/07/15 07:51:22;;;;;;;;;;;;;;;20.22;41.56;100793.61;1703427;84;20196;-77
2022/07/15 07:53:48;;;;;;;;;;;;;;;19.64;41.35;100797.10;1696618;84;21170;-77
2022/07/15 07:56:14;;;;;;;;;;;;;;;19.52;41.30;100799.70;1698537;84;20194;-77
2022/07/15 07:58:39;;;;;;;;;;;;;;;19.60;41.20;100791.85;1705674;83;20227;-77
2022/07/15 08:01:06;;;;;;;;;;;;;;;19.77;41.12;100792.97;1698683;84;20158;-77
2022/07/15 08:03:32;;;;;;;;;;;;;;;19.52;41.06;100798.87;1698850;83;20498;-76
2022/07/15 08:05:58;;;;;;;;;;;;;;;19.51;41.20;100790.44;1709559;83;21693;-77
2022/07/15 08:08:24;;;;;;;;;;;;;;;19.52;41.13;100796.16;1727473;83;20196;-77
2022/07/15 08:10:53;;;;;;;;;;;;;;;19.52;41.08;100804.28;1723415;83;20263;-77
2022/07/15 08:13:20;;;;;;;;;;;;;;;19.66;41.04;100797.73;1688536;83;20648;-77
2022/07/15 08:15:46;;;;;;;;;;;;;;;19.54;40.88;100804.88;1694583;84;20232;-77
2022/07/15 08:18:12;;;;;;;;;;;;;;;19.26;41.02;100804.71;1692999;84;21221;-77
2022/07/15 08:20:38;;;;;;;;;;;;;;;19.09;41.25;100806.26;1695452;84;20138;-76
2022/07/15 08:23:04;;;;;;;;;;;;;;;18.80;41.30;100815.73;1703652;84;20275;-77
2022/07/15 08:25:32;;;;;;;;;;;;;;;18.74;41.49;100804.95;1695861;83;20160;-78
2022/07/15 08:27:59;;;;;;;;;;;;;;;19.01;41.45;100809.72;1692597;84;20188;-77
2022/07/15 08:30:26;;;;;;;;;;;;;;;18.92;41.41;100818.09;1700748;84;21155;-77
2022/07/15 08:32:52;;;;;;;;;;;;;;;18.84;41.38;100821.02;1728977;83;20206;-76
2022/07/15 08:35:18;;;;;;;;;;;;;;;18.77;41.38;100818.87;1690649;84;20573;-76
2022/07/15 08:37:44;;;;;;;;;;;;;;;19.07;41.55;100818.34;1699212;84;20465;-77
2022/07/15 08:40:11;;;;;;;;;;;;;;;19.52;41.37;100831.34;1699539;84;20185;-77
2022/07/15 08:42:39;;;;;;;;;;;;;;;19.44;41.12;100827.84;1694226;84;21192;-77
2022/07/15 08:45:06;;;;;;;;;;;;;;;19.39;41.18;100823.56;1694508;84;20445;-77
2022/07/15 08:47:33;;;;;;;;;;;;;;;19.27;41.12;100825.31;1696886;84;20170;-77
2022/07/15 08:49:58;;;;;;;;;;;;;;;19.01;41.14;100827.29;1687493;84;20154;-77
2022/07/15 08:52:25;;;;;;;;;;;;;;;18.76;41.23;100825.30;1690844;84;20268;-76
2022/07/15 08:54:51;;;;;;;;;;;;;;;19.02;41.45;100827.09;1693242;84;21075;-77
2022/07/15 08:57:18;;;;;;;;;;;;;;;19.30;41.34;100824.88;1693134;84;20513;-76
2022/07/15 08:59:45;;;;;;;;;;;;;;;19.34;41.30;100831.52;1698442;84;20444;-76
2022/07/15 09:02:12;;;;;;;;;;;;;;;19.27;41.21;100838.83;1700511;84;20165;-76
2022/07/15 09:05:16;;;;;;;;;;;;;;;19.07;41.16;100834.02;1696577;84;20185;-76
2022/07/15 09:08:01;;;;;;;;;;;;;;;18.95;41.34;100829.83;1702820;83;21147;-76
2022/07/15 09:10:54;;;;;;;;;;;;;;;18.99;41.42;100837.50;1691558;84;20190;-77
2022/07/15 09:13:40;;;;;;;;;;;;;;;19.29;41.46;100838.08;1689781;83;20472;-77
2022/07/15 09:16:19;;;;;;;;;;;;;;;19.57;41.41;100834.20;1691029;84;20602;-77
2022/07/15 09:18:42;;;;;;;;;;;;;;;19.99;41.35;100834.83;1700215;83;20190;-77
2022/07/15 09:21:20;;;;;;;;;;;;;;;19.80;41.15;100826.36;1698233;83;21047;-77
2022/07/15 09:23:46;;;;;;;;;;;;;;;19.53;41.16;100840.57;1696156;84;20170;-77
2022/07/15 09:26:27;;;;;;;;;;;;;;;19.16;41.09;100840.86;1696837;84;20183;-77
2022/07/15 09:28:53;;;;;;;;;;;;;;;18.92;41.19;100836.17;1692180;84;20164;-77
2022/07/15 09:34:17;;;;;;;;;;;;;;;19.52;41.45;100825.92;1693665;84;21109;-77
2022/07/15 09:36:46;;;;;;;;;;;;;;;19.91;41.27;100818.88;1699096;83;20270;-77
2022/07/15 09:39:13;;;;;;;;;;;;;;;19.89;41.11;100823.67;1699505;83;20144;-77
2022/07/15 09:41:41;;;;;;;;;;;;;;;19.53;40.81;100815.42;1691416;84;20174;-78
2022/07/15 09:44:20;;;;;;;;;;;;;;;19.29;40.66;100828.61;1701822;84;20152;-77
2022/07/15 09:46:53;;;;;;;;;;;;;;;19.30;40.55;100834.34;1698347;84;21161;-77
2022/07/15 09:49:29;;;;;;;;;;;;;;;19.26;40.31;100831.75;1704151;84;20167;-77
2022/07/15 09:52:07;;;;;;;;;;;;;;;19.15;40.03;100837.84;1702639;83;20165;-77
2022/07/15 09:54:34;;;;;;;;;;;;;;;19.04;39.91;100839.02;1694192;83;20182;-77
2022/07/15 09:57:02;;;;;;;;;;;;;;;19.19;39.97;100833.66;1690741;84;20173;-77
2022/07/15 09:59:29;;;;;;;;;;;;;;;19.68;39.95;100840.27;1695417;84;21160;-77
2022/07/15 10:01:55;;;;;;;;;;;;;;;19.75;39.71;100841.06;1698982;84;20202;-78
2022/07/15 10:04:22;;;;;;;;;;;;;;;19.83;39.65;100839.45;1702085;84;20598;-77
2022/07/15 10:06:50;;;;;;;;;;;;;;;19.95;39.50;100841.21;1693709;84;20491;-77
2022/07/15 10:09:25;;;;;;;;;;;;;;;20.27;39.17;100839.30;1699065;84;20737;-77
2022/07/15 10:11:53;;;;;;;;;;;;;;;20.33;38.94;100828.12;1697425;84;21117;-76
2022/07/15 10:14:44;;;;;;;;;;;;;;;20.36;38.88;100832.57;1694489;84;20156;-76
2022/07/15 10:17:28;;;;;;;;;;;;;;;20.16;38.60;100840.55;1691110;84;20703;-76
2022/07/15 10:20:16;;;;;;;;;;;;;;;19.93;38.62;100838.43;1683289;84;20167;-76
2022/07/15 10:23:15;;;;;;;;;;;;;;;19.82;38.61;100847.25;1694526;83;20487;-76
2022/07/15 10:25:57;;;;;;;;;;;;;;;19.96;38.63;100839.34;1702623;83;21787;-79
2022/07/15 10:28:43;;;;;;;;;;;;;;;20.31;38.55;100839.17;1700303;84;20154;-78
2022/07/15 10:31:22;;;;;;;;;;;;;;;20.33;38.44;100848.44;1699263;84;20459;-79
2022/07/15 10:34:13;;;;;;;;;;;;;;;20.27;38.42;100830.31;1701509;84;20190;-78
2022/07/15 10:36:41;;;;;;;;;;;;;;;20.61;38.29;100827.63;1693749;84;20518;-78
2022/07/15 10:39:11;;;;;;;;;;;;;;;20.68;37.87;100828.38;1697737;84;21072;-79
2022/07/15 10:41:57;;;;;;;;;;;;;;;20.49;37.49;100830.77;1707944;82;20523;-78
2022/07/15 10:44:26;;;;;;;;;;;;;;;20.21;37.43;100841.53;1698082;83;20481;-78
2022/07/15 10:47:14;;;;;;;;;;;;;;;20.09;37.50;100838.42;1704960;83;20177;-78
2022/07/15 10:49:46;;;;;;;;;;;;;;;20.28;37.61;100839.63;1670594;84;20471;-78
2022/07/15 10:52:17;;;;;;;;;;;;;;;20.58;37.48;100834.86;1659825;84;21162;-78
2022/07/15 10:54:46;;;;;;;;;;;;;;;20.65;37.32;100836.97;1693833;81;20139;-78
2022/07/15 10:57:13;;;;;;;;;;;;;;;20.47;37.07;100834.23;1710580;84;20169;-79
2022/07/15 10:59:49;;;;;;;;;;;;;;;20.64;37.32;100833.95;1707056;84;20184;-78
2022/07/15 11:02:16;;;;;;;;;;;;;;;20.65;37.06;100828.84;1705945;84;20172;-78
2022/07/15 11:04:42;;;;;;;;;;;;;;;20.80;37.02;100823.33;1666730;84;21197;-78
2022/07/15 11:07:12;;;;;;;;;;;;;;;20.75;36.89;100827.78;1703860;84;20172;-78
2022/07/15 11:10:05;;;;;;;;;;;;;;;20.71;36.88;100826.58;1707021;83;20166;-79
2022/07/15 11:12:36;;;;;;;;;;;;;;;20.51;36.83;100832.74;1695133;83;20172;-78
2022/07/15 11:15:12;;;;;;;;;;;;;;;20.23;36.91;100842.12;1711927;83;20485;-79
2022/07/15 11:17:40;;;;;;;;;;;;;;;20.10;36.85;100839.53;1695928;84;21053;-78
2022/07/15 11:20:08;;;;;;;;;;;;;;;20.31;37.01;100841.88;1705980;84;20202;-78
2022/07/15 11:22:37;;;;;;;;;;;;;;;20.52;36.97;100837.92;1690239;84;20450;-79
2022/07/15 11:25:06;;;;;;;;;;;;;;;20.34;36.76;100846.02;1698404;84;20169;-79
2022/07/15 11:27:32;;;;;;;;;;;;;;;20.18;36.71;100846.56;1728424;83;20156;-79
2022/07/15 11:30:03;;;;;;;;;;;;;;;20.01;36.75;100846.81;1728785;83;21026;-79
2022/07/15 11:32:31;;;;;;;;;;;;;;;19.98;36.83;100844.03;1728897;83;20184;-79
2022/07/15 11:34:58;;;;;;;;;;;;;;;20.27;36.88;100848.79;1728992;81;20370;-79
2022/07/15 11:37:31;;;;;;;;;;;;;;;20.40;36.77;100843.27;1724218;83;20581;-79
2022/07/15 11:45:46;;;;;;;;;;;;;;;20.66;36.82;100838.61;1717695;82;20170;-79
2022/07/15 11:48:12;;;;;;;;;;;;;;;20.94;36.57;100841.63;1713553;82;20156;-78
2022/07/15 11:50:43;;;;;;;;;;;;;;;20.90;36.36;100842.60;1716606;82;20246;-79
2022/07/15 11:53:11;;;;;;;;;;;;;;;20.81;36.21;100834.48;1712390;83;20164;-78
2022/07/15 11:55:56;;;;;;;;;;;;;;;20.90;36.14;100829.56;1712037;83;20173;-79
2022/07/15 11:58:33;;;;;;;;;;;;;;;21.34;36.13;100835.20;1715177;82;20220;-79
2022/07/15 12:01:02;;;;;;;;;;;;;;;21.55;35.78;100836.58;1715127;82;20157;-79
2022/07/15 12:03:40;;;;;;;;;;;;;;;21.52;35.61;100835.69;1715011;82;20670;-80
2022/07/15 12:06:13;;;;;;;;;;;;;;;21.67;35.55;100842.36;1710373;82;20460;-79
2022/07/15 12:08:42;;;;;;;;;;;;;;;21.64;35.05;100837.37;1714206;83;21068;-79
2022/07/15 12:11:14;;;;;;;;;;;;;;;21.67;34.95;100838.81;1714783;83;20154;-79
2022/07/15 12:13:42;;;;;;;;;;;;;;;21.79;34.97;100842.38;1714903;83;20149;-80
2022/07/15 12:16:09;;;;;;;;;;;;;;;21.82;34.82;100833.75;1713676;83;20169;-79
2022/07/15 12:18:38;;;;;;;;;;;;;;;21.81;34.83;100833.48;1714641;83;20341;-79
2022/07/15 12:21:06;;;;;;;;;;;;;;;21.73;34.77;100839.23;1715659;82;21072;-79
2022/07/15 12:23:32;;;;;;;;;;;;;;;22.03;34.76;100837.31;1715177;82;21136;-79
2022/07/15 12:26:07;;;;;;;;;;;;;;;22.15;34.59;100842.23;1715105;82;20506;-79
2022/07/15 12:28:35;;;;;;;;;;;;;;;22.08;34.25;100832.54;1709155;83;20145;-79
2022/07/15 12:31:02;;;;;;;;;;;;;;;21.79;34.07;100850.52;1715371;83;20149;-79
2022/07/15 12:33:32;;;;;;;;;;;;;;;21.62;34.15;100840.02;1715109;82;21010;-79
2022/07/15 12:36:16;;;;;;;;;;;;;;;21.61;34.18;100849.22;1710283;83;20157;-79
2022/07/15 12:38:42;;;;;;;;;;;;;;;21.37;34.16;100847.78;1714653;83;20220;-80
2022/07/15 12:41:12;;;;;;;;;;;;;;;21.20;34.31;100852.19;1715146;83;20145;-80
2022/07/15 12:43:49;;;;;;;;;;;;;;;21.04;34.34;100848.69;1712905;83;20460;-79
2022/07/15 12:46:15;;;;;;;;;;;;;;;20.82;34.43;100849.70;1711322;83;21675;-80
2022/07/15 12:48:47;;;;;;;;;;;;;;;20.66;34.63;100852.16;1715226;82;20192;-79
2022/07/15 12:51:16;;;;;;;;;;;;;;;20.75;34.78;100852.19;1686660;83;20134;-80
2022/07/15 12:53:43;;;;;;;;;;;;;;;20.92;34.82;100846.45;1715486;82;20150;-80
2022/07/15 12:56:09;;;;;;;;;;;;;;;20.82;34.74;100840.73;1714549;82;20264;-80
2022/07/15 12:58:37;;;;;;;;;;;;;;;20.74;34.85;100847.28;1727560;82;20156;-79
2022/07/15 13:01:09;;;;;;;;;;;;;;;20.79;34.99;100838.48;1713097;83;20161;-79
2022/07/15 13:03:36;;;;;;;;;;;;;;;20.79;34.99;100841.20;1713423;82;20168;-79
2022/07/15 13:06:02;;;;;;;;;;;;;;;20.79;35.07;100841.20;1712447;83;20153;-79
2022/07/15 13:08:29;;;;;;;;;;;;;;;20.90;35.20;100845.84;1709012;83;20758;-79
2022/07/15 13:10:57;;;;;;;;;;;;;;;21.04;35.27;100844.63;1711846;83;21148;-80
2022/07/15 13:13:24;;;;;;;;;;;;;;;21.20;35.27;100839.98;1708854;83;20463;-79
2022/07/15 13:15:51;;;;;;;;;;;;;;;21.18;35.01;100831.23;1711238;83;20161;-79
2022/07/15 13:18:17;;;;;;;;;;;;;;;21.13;34.84;100839.77;1709772;83;20204;-79
2022/07/15 13:20:43;;;;;;;;;;;;;;;21.03;34.63;100837.56;1710681;83;20157;-79
2022/07/15 13:23:09;;;;;;;;;;;;;;;20.97;34.66;100836.30;1715359;83;21766;-79
2022/07/15 13:25:36;;;;;;;;;;;;;;;20.96;34.74;100834.11;1715490;83;20214;-79
2022/07/15 13:28:03;;;;;;;;;;;;;;;21.06;34.88;100824.91;1715419;83;20172;-80
2022/07/15 13:30:29;;;;;;;;;;;;;;;21.26;34.90;100826.84;1715541;82;20181;-79
2022/07/15 13:32:55;;;;;;;;;;;;;;;21.38;34.86;100841.31;1715368;83;20385;-79
2022/07/15 13:35:20;;;;;;;;;;;;;;;21.15;34.78;100839.83;1729460;82;21152;-79
2022/07/15 13:37:46;;;;;;;;;;;;;;;21.04;34.96;100844.63;1706776;83;20879;-79
2022/07/15 13:40:12;;;;;;;;;;;;;;;21.27;35.07;100833.94;1698542;84;20209;-79
2022/07/15 13:42:39;;;;;;;;;;;;;;;21.32;34.99;100834.06;1698473;84;20181;-80
2022/07/15 13:45:06;;;;;;;;;;;;;;;21.40;35.05;100833.75;1698369;84;20157;-80
2022/07/15 13:47:32;;;;;;;;;;;;;;;21.57;35.00;100828.49;1706845;83;21716;-80
2022/07/15 13:52:47;;;;;;;;;;;;;;;21.85;34.60;100839.55;1698675;83;20200;-80
2022/07/15 13:55:12;;;;;;;;;;;;;;;21.82;34.51;100832.39;1688277;84;20142;-80
2022/07/15 13:57:38;;;;;;;;;;;;;;;21.68;34.51;100832.30;1697450;84;20235;-79
2022/07/15 14:00:06;;;;;;;;;;;;;;;21.63;34.46;100819.97;1698657;84;21158;-80
2022/07/15 14:02:32;;;;;;;;;;;;;;;21.60;34.45;100829.41;1698283;84;20530;-79
2022/07/15 14:04:58;;;;;;;;;;;;;;;21.62;34.26;100823.73;1698555;83;20251;-79
2022/07/15 14:07:24;;;;;;;;;;;;;;;21.48;34.07;100831.77;1698477;84;20720;-79
2022/07/15 14:09:50;;;;;;;;;;;;;;;21.27;34.06;100829.87;1697954;84;20184;-80
2022/07/15 14:12:15;;;;;;;;;;;;;;;21.19;34.13;100829.34;1698548;84;21107;-79
2022/07/15 14:14:41;;;;;;;;;;;;;;;21.01;34.12;100832.88;1685845;84;20377;-79
2022/07/15 14:17:07;;;;;;;;;;;;;;;21.02;34.30;100830.48;1698553;84;20175;-80
2022/07/15 14:19:33;;;;;;;;;;;;;;;21.10;34.41;100831.56;1698197;84;20727;-79
2022/07/15 14:21:59;;;;;;;;;;;;;;;21.06;34.45;100834.39;1698524;84;20179;-80
2022/07/15 14:24:25;;;;;;;;;;;;;;;21.00;34.57;100833.95;1698067;84;21179;-80
2022/07/15 14:26:51;;;;;;;;;;;;;;;21.02;34.60;100831.83;1697947;84;20207;-80
2022/07/15 14:29:17;;;;;;;;;;;;;;;21.00;34.73;100835.31;1698256;84;20279;-80
2022/07/15 14:31:43;;;;;;;;;;;;;;;20.87;34.68;100840.87;1698328;83;20160;-79
2022/07/15 14:34:09;;;;;;;;;;;;;;;20.74;34.70;100836.96;1698359;83;20754;-80
2022/07/15 14:36:34;;;;;;;;;;;;;;;20.62;34.65;100846.91;1694138;84;21278;-79
2022/07/15 14:39:00;;;;;;;;;;;;;;;20.58;34.70;100849.77;1705660;83;20234;-80
2022/07/15 14:41:26;;;;;;;;;;;;;;;20.77;34.78;100831.09;1712838;82;20191;-79
2022/07/15 14:43:52;;;;;;;;;;;;;;;20.88;34.67;100837.11;1711507;83;20722;-79
2022/07/15 14:46:18;;;;;;;;;;;;;;;20.83;34.71;100849.15;1731075;82;20231;-79
2022/07/15 14:48:44;;;;;;;;;;;;;;;20.79;34.68;100839.84;1715537;83;21182;-79
2022/07/15 14:51:10;;;;;;;;;;;;;;;20.71;34.68;100846.91;1715358;83;20767;-80
2022/07/15 14:53:36;;;;;;;;;;;;;;;20.68;34.78;100852.26;1715399;82;20441;-79
2022/07/15 14:56:02;;;;;;;;;;;;;;;20.65;34.80;100851.36;1715478;83;20137;-79
2022/07/15 14:58:28;;;;;;;;;;;;;;;20.64;34.85;100852.92;1715208;83;20164;-79
2022/07/15 15:00:54;;;;;;;;;;;;;;;20.63;34.87;100847.19;1722255;82;21160;-79
2022/07/15 15:03:20;;;;;;;;;;;;;;;20.62;34.88;100850.98;1715344;82;20317;-78
2022/07/15 15:05:46;;;;;;;;;;;;;;;20.62;34.92;100853.69;1714757;82;20191;-78
2022/07/15 15:08:12;;;;;;;;;;;;;;;20.52;34.96;100849.28;1719473;82;20491;-78
2022/07/15 15:10:38;;;;;;;;;;;;;;;20.51;35.04;100849.00;1714252;83;20263;-78
2022/07/15 15:13:04;;;;;;;;;;;;;;;20.55;35.13;100848.86;1722780;82;21070;-78
2022/07/15 15:15:30;;;;;;;;;;;;;;;20.56;35.21;100851.85;1722905;82;20228;-78
2022/07/15 15:17:56;;;;;;;;;;;;;;;20.53;35.26;100855.02;1710210;83;20184;-78
2022/07/15 15:20:21;;;;;;;;;;;;;;;20.53;35.28;100855.02;1711395;83;20144;-78
2022/07/15 15:22:47;;;;;;;;;;;;;;;20.55;35.33;100851.57;1710690;83;20184;-78
2022/07/15 15:25:13;;;;;;;;;;;;;;;20.55;35.32;100852.92;1710817;83;21797;-78
2022/07/15 15:27:39;;;;;;;;;;;;;;;20.64;35.36;100856.98;1711945;83;20259;-78
2022/07/15 15:30:06;;;;;;;;;;;;;;;20.66;35.36;100850.28;1712366;82;20286;-78
2022/07/15 15:32:32;;;;;;;;;;;;;;;20.66;35.34;100860.29;1709566;83;20173;-78
2022/07/15 15:34:58;;;;;;;;;;;;;;;20.58;35.31;100855.19;1709954;83;20839;-78
2022/07/15 15:37:24;;;;;;;;;;;;;;;20.57;35.34;100852.16;1710116;83;21045;-79
2022/07/15 15:39:50;;;;;;;;;;;;;;;20.60;35.37;100854.42;1717024;83;20576;-78
2022/07/15 15:42:16;;;;;;;;;;;;;;;20.55;35.37;100849.66;1719566;83;20272;-78
2022/07/15 15:44:42;;;;;;;;;;;;;;;20.51;35.37;100850.36;1719605;83;20159;-78
2022/07/15 15:47:07;;;;;;;;;;;;;;;20.47;35.43;100845.08;1700123;83;20812;-78
2022/07/15 15:49:35;;;;;;;;;;;;;;;20.40;35.48;100845.98;1727457;82;21151;-78
2022/07/15 15:52:03;;;;;;;;;;;;;;;20.37;35.55;100837.47;1719446;83;20432;-78
2022/07/15 15:54:29;;;;;;;;;;;;;;;20.44;35.62;100843.66;1720020;83;20161;-78
2022/07/15 15:56:55;;;;;;;;;;;;;;;20.65;35.66;100839.68;1718381;83;20333;-78
2022/07/15 15:59:21;;;;;;;;;;;;;;;20.82;35.65;100833.44;1727237;82;20181;-78
2022/07/15 16:01:47;;;;;;;;;;;;;;;20.94;35.58;100837.03;1718901;83;21060;-78
2022/07/15 16:04:13;;;;;;;;;;;;;;;21.04;35.54;100840.55;1725084;82;20195;-78
2022/07/15 16:06:39;;;;;;;;;;;;;;;21.13;35.50;100839.77;1719551;82;20188;-78
2022/07/15 16:09:05;;;;;;;;;;;;;;;20.95;35.34;100846.00;1718368;83;20231;-78
2022/07/15 16:11:31;;;;;;;;;;;;;;;20.97;35.36;100839.80;1718947;83;20176;-78
2022/07/15 16:13:57;;;;;;;;;;;;;;;21.00;35.21;100843.45;1719594;83;21087;-78
2022/07/15 16:16:23;;;;;;;;;;;;;;;20.89;35.12;100844.20;1719664;83;20279;-78
2022/07/15 16:18:49;;;;;;;;;;;;;;;20.75;35.08;100844.88;1718986;83;20275;-78
2022/07/15 16:22:51;;;;;;;;;;;;;;;20.57;35.12;100852.16;1702711;83;20217;-78
2022/07/15 16:23:42;;;;;;;;;;;;;;;20.37;35.22;100857.78;1714854;83;20179;-78
2022/07/15 16:26:08;;;;;;;;;;;;;;;20.20;35.34;100847.98;1698311;84;21173;-78
2022/07/15 16:28:34;;;;;;;;;;;;;;;20.12;35.45;100839.33;1698148;84;20208;-78
2022/07/15 16:31:00;;;;;;;;;;;;;;;20.09;35.51;100844.64;1698502;84;20216;-78
2022/07/15 16:33:26;;;;;;;;;;;;;;;20.04;35.62;100843.66;1698788;84;20704;-78
2022/07/15 16:35:51;;;;;;;;;;;;;;;20.06;35.74;100841.02;1718484;83;20209;-78
2022/07/15 16:38:17;;;;;;;;;;;;;;;20.14;35.82;100840.76;1703628;83;21177;-78
2022/07/15 16:40:43;;;;;;;;;;;;;;;20.18;35.89;100841.97;1708661;82;20808;-78
2022/07/15 16:43:09;;;;;;;;;;;;;;;20.21;35.96;100837.98;1705874;84;20278;-78
2022/07/15 16:45:36;;;;;;;;;;;;;;;20.39;36.05;100840.25;1728958;83;20185;-78
2022/07/15 16:48:03;;;;;;;;;;;;;;;20.52;36.01;100833.02;1710625;84;20130;-78
2022/07/15 16:50:28;;;;;;;;;;;;;;;20.47;35.95;100829.66;1710684;84;21021;-78
2022/07/15 16:52:54;;;;;;;;;;;;;;;20.34;35.98;100836.53;1710688;84;20208;-78
2022/07/15 16:55:20;;;;;;;;;;;;;;;20.27;36.07;100843.37;1716492;83;20748;-78
2022/07/15 16:57:46;;;;;;;;;;;;;;;20.16;36.07;100844.06;1708090;83;20168;-78
2022/07/15 17:00:13;;;;;;;;;;;;;;;20.02;36.08;100843.86;1752193;81;20162;-78
2022/07/15 17:02:39;;;;;;;;;;;;;;;19.93;36.14;100846.55;1740331;82;21165;-78
2022/07/15 17:05:05;;;;;;;;;;;;;;;19.87;36.20;100844.73;1732269;82;20166;-78
2022/07/15 17:07:32;;;;;;;;;;;;;;;19.78;36.27;100843.32;1728505;81;20150;-78
2022/07/15 17:09:58;;;;;;;;;;;;;;;19.75;36.33;100848.66;1723395;83;20202;-78
2022/07/15 17:12:24;;;;;;;;;;;;;;;19.71;36.40;100842.54;1688600;84;20172;-78
2022/07/15 17:14:50;;;;;;;;;;;;;;;19.64;36.46;100847.16;1707297;84;21806;-79
2022/07/15 17:17:17;;;;;;;;;;;;;;;19.57;36.56;100845.86;1701135;84;20190;-80
2022/07/15 17:19:43;;;;;;;;;;;;;;;19.57;36.62;100850.44;1706220;84;20173;-79
2022/07/15 17:22:09;;;;;;;;;;;;;;;19.60;36.71;100848.13;1709390;84;20161;-79
2022/07/15 17:24:34;;;;;;;;;;;;;;;19.61;36.77;100847.09;1705749;84;20156;-79
2022/07/15 17:27:00;;;;;;;;;;;;;;;19.57;36.85;100842.31;1701215;84;21180;-78
2022/07/15 17:29:26;;;;;;;;;;;;;;;19.47;36.92;100844.67;1734906;81;20466;-78
2022/07/15 17:31:52;;;;;;;;;;;;;;;19.41;37.00;100844.52;1749276;81;20516;-78
2022/07/15 17:34:18;;;;;;;;;;;;;;;19.36;37.07;100842.94;1725158;81;20488;-77
2022/07/15 17:36:44;;;;;;;;;;;;;;;19.31;37.15;100846.83;1728983;83;20167;-79
2022/07/15 17:39:10;;;;;;;;;;;;;;;19.30;37.23;100844.33;1725625;83;21843;-79
2022/07/15 17:41:36;;;;;;;;;;;;;;;19.27;37.30;100840.19;1714638;83;20196;-79
2022/07/15 17:44:02;;;;;;;;;;;;;;;19.25;37.36;100843.61;1715431;83;20141;-79
2022/07/15 17:46:28;;;;;;;;;;;;;;;19.22;37.44;100844.05;1730999;82;20555;-79
2022/07/15 17:48:54;;;;;;;;;;;;;;;19.21;37.50;100836.16;1715628;83;20184;-79
2022/07/15 17:51:20;;;;;;;;;;;;;;;19.17;37.51;100843.87;1715431;83;21103;-79
2022/07/15 17:53:46;;;;;;;;;;;;;;;19.14;37.57;100842.93;1715424;83;20180;-79
2022/07/15 17:56:12;;;;;;;;;;;;;;;19.12;37.60;100842.33;1715578;83;20557;-79
2022/07/15 17:58:37;;;;;;;;;;;;;;;19.08;37.64;100845.15;1715550;83;20416;-79
2022/07/15 18:01:05;;;;;;;;;;;;;;;19.07;37.70;100843.48;1715589;82;20255;-79
2022/07/15 18:03:31;;;;;;;;;;;;;;;19.03;37.75;100836.87;1717584;82;21155;-79
2022/07/15 18:05:57;;;;;;;;;;;;;;;19.03;37.81;100836.03;1714430;82;20168;-79
2022/07/15 18:08:23;;;;;;;;;;;;;;;19.01;37.84;100838.94;1710335;82;20253;-79
2022/07/15 18:10:49;;;;;;;;;;;;;;;18.99;37.92;100836.98;1719270;82;20177;-79
2022/07/15 18:13:15;;;;;;;;;;;;;;;18.97;38.00;100841.76;1717856;82;20783;-79
2022/07/15 18:15:41;;;;;;;;;;;;;;;18.96;38.07;100837.41;1712785;83;21080;-79
2022/07/15 18:18:06;;;;;;;;;;;;;;;18.95;38.15;100839.80;1714861;82;20207;-79
2022/07/15 18:20:32;;;;;;;;;;;;;;;18.90;38.21;100832.33;1709957;83;20219;-79
2022/07/15 18:22:58;;;;;;;;;;;;;;;18.86;38.30;100828.38;1713910;82;20136;-79
2022/07/15 18:25:24;;;;;;;;;;;;;;;18.81;38.39;100830.91;1717281;82;20255;-78
2022/07/15 18:27:50;;;;;;;;;;;;;;;18.74;38.44;100837.37;1711804;83;20723;-79
2022/07/15 18:30:16;;;;;;;;;;;;;;;18.69;38.53;100831.77;1711024;83;20184;-79
2022/07/15 18:32:45;;;;;;;;;;;;;;;18.64;38.53;100836.99;1710843;83;20165;-79
2022/07/15 18:35:12;;;;;;;;;;;;;;;18.54;38.64;100832.55;1714338;82;20177;-79
2022/07/15 18:37:38;;;;;;;;;;;;;;;18.45;38.76;100844.89;1704327;83;20161;-79
2022/07/15 18:40:06;;;;;;;;;;;;;;;18.38;38.81;100841.37;1696730;83;21195;-71
2022/07/15 18:42:33;;;;;;;;;;;;;;;18.31;38.89;100845.95;1693965;84;20156;-71
2022/07/15 18:44:59;;;;;;;;;;;;;;;18.23;38.98;100848.02;1703235;83;20549;-71
2022/07/15 18:47:24;;;;;;;;;;;;;;;18.17;39.06;100846.16;1708083;82;20235;-71
2022/07/15 18:49:50;;;;;;;;;;;;;;;18.10;39.14;100847.52;1700956;83;20199;-71
2022/07/15 18:52:16;;;;;;;;;;;;;;;18.03;39.20;100849.38;1689902;83;21880;-70
2022/07/15 18:54:42;;;;;;;;;;;;;;;17.93;39.30;100843.56;1696510;84;20199;-70
2022/07/15 18:57:08;;;;;;;;;;;;;;;17.88;39.40;100847.39;1697676;84;20215;-70
2022/07/15 18:59:34;;;;;;;;;;;;;;;17.81;39.49;100846.55;1685033;84;20212;-71
2022/07/15 19:02:00;;;;;;;;;;;;;;;17.74;39.57;100845.72;1695725;84;20164;-71
2022/07/15 19:04:26;;;;;;;;;;;;;;;17.66;39.66;100849.98;1695916;84;21089;-70
2022/07/15 19:06:52;;;;;;;;;;;;;;;17.58;39.76;100846.11;1697425;83;20266;-71
2022/07/15 19:09:18;;;;;;;;;;;;;;;17.51;39.83;100848.77;1681016;83;20260;-70
2022/07/15 19:11:43;;;;;;;;;;;;;;;17.45;39.94;100850.39;1678082;84;20205;-70
2022/07/15 19:14:09;;;;;;;;;;;;;;;17.41;40.02;100861.81;1679834;84;20235;-70
2022/07/15 19:16:35;;;;;;;;;;;;;;;17.36;40.10;100856.19;1680636;83;21164;-70
2022/07/15 19:19:01;;;;;;;;;;;;;;;17.26;40.18;100853.88;1677382;83;20181;-70
2022/07/15 19:21:27;;;;;;;;;;;;;;;17.15;40.32;100863.89;1682463;83;20928;-71
2022/07/15 19:23:53;;;;;;;;;;;;;;;17.06;40.42;100868.31;1675589;83;20490;-71
2022/07/15 19:26:19;;;;;;;;;;;;;;;16.98;40.53;100861.23;1678411;83;20183;-71